Jacksonville, FL (32216)

7:58 AM EDT on August 21, 2014 (GMT -0400)
Jacksonville Corporate Center | Change Station
CLOSE
Current Station
Personal Weather Station
Location: Jacksonville, FL
Elevation: 45 ft
Nearby Weather Stations
Active Advisory: Heat Advisory

Elev 45 ft 30.26 °N, 81.60 °W | Updated 1 minute ago

Clear
Clear
79.9 °F
Feels Like 85 °F
N
0.0
Wind Variable Wind from North
Gusts 3.0 mph

Today
High -- | Low -- °F
--% Chance of Precip.
Yesterday
High -- | Low -- °F
Precip. -- in
6:56 AM 8:01 PM
Waning Crescent, 15% visible
Pressure 30.11 in
Visibility 10.0 miles
Clouds Clear
Heat Index 85 °F
Dew Point 77 °F
Humidity 90%
Rainfall 0.00 in
Snow Depth Not available.
UV 1 out of 12
Pollen 7.90 out of 12
Air Quality Not available.
Flu Activity Not available.
METAR KCRG 211153Z 00000KT 10SM CLR 27/24 A3011 RMK AO2 SLP194 T02670239 10278 20250 53022

More Conditions Fewer Conditions

Pressure 30.11 in
Visibility 10.0 miles
Clouds Clear
Heat Index 85 °F
Dew Point 77 °F
Humidity 90%
Rainfall 0.00 in
Snow Depth Not available.
UV 1 out of 12
Pollen 7.90 out of 12
Air Quality Not available.
Flu Activity Not available.
METAR KCRG 211153Z 00000KT 10SM CLR 27/24 A3011 RMK AO2 SLP194 T02670239 10278 20250 53022

More Conditions Fewer Conditions

10-Day Weather Forecast

Almanac

Astronomy

Aug. 21, 2014 Rise Set
Actual Time 6:56 AM EDT 8:01 PM EDT
Civil Twilight 6:31 AM EDT 8:26 PM EDT
Nautical Twilight 6:02 AM EDT 8:55 PM EDT
Astronomical Twilight 5:31 AM EDT 9:26 PM EDT
Moon 3:32 AM EDT 5:23 PM EDT
Length of Visible Light 13h 54m
Length of Day
13h 04m
Tomorrow will be 1m 40s shorter.
Waning Crescent, 15% of the Moon is Illuminated
Today
Waning Crescent
Aug 25
New
Sep 2
First Quarter
Sep 8
Full
Sep 15
Last Quarter

Today's Extremes

State Highs State Lows

Community

WunderPhotos

Upload Photos

1,745,864 photos uploaded!

Nearby

Air Quality

  Air Quality AQ Index Pollutant
Yesterday Moderate
PM2.5
Yesterday Good
OZONE
Thursday Moderate
OZONE
Thursday Moderate
PM2.5

Snow Depth

Station Depth Elevation
No new snow has been reported.

Earthquake Activity

City Distance Mag. Time & Date
No recent earthquake activity has been reported nearby.
Minimum magnitude displayed is 2.5.

Coastal Water Temperatures

Place Temperature
Mayport (Bar Pilots Dock), FL 82.0 °F
Fernandina Beach, FL 84.0 °F

Nearby Weather Stations